Time;durP1;ratioP1;P1;durP2;ratioP2;P2;SDS_P1;SDS_P2;PMS_P1;PMS_P2;Temp;Humidity;BMP_temperature;BMP_pressure;BME280_temperature;BME280_humidity;BME280_pressure;Samples;Min_cycle;Max_cycle;Signal;HPM_P1;HPM_P2
2023/04/26 00:00:20;;;;;;;5.97;2.47;;;;;;;1.38;100.00;102086.72;5035777;28;20037;-74
2023/04/26 00:02:46;;;;;;;8.30;2.45;;;;;;;1.30;100.00;102088.75;5034999;28;20459;-74
2023/04/26 00:05:12;;;;;;;5.13;2.00;;;;;;;1.24;100.00;102086.31;5034900;28;20037;-74
2023/04/26 00:07:37;;;;;;;8.23;2.58;;;;;;;1.18;100.00;102082.13;5034798;28;20037;-74
2023/04/26 00:10:04;;;;;;;6.32;1.95;;;;;;;1.12;100.00;102077.06;5035380;28;20033;-73
2023/04/26 00:12:29;;;;;;;7.75;2.47;;;;;;;1.08;100.00;102079.84;5034610;28;20029;-73
2023/04/26 00:14:55;;;;;;;6.28;1.85;;;;;;;1.03;100.00;102088.69;5033052;28;20060;-73
2023/04/26 00:17:22;;;;;;;8.82;2.25;;;;;;;1.04;100.00;102086.94;5033404;28;20029;-73
2023/04/26 00:19:47;;;;;;;5.10;2.13;;;;;;;1.01;100.00;102085.25;5034391;28;20178;-73
2023/04/26 00:22:14;;;;;;;6.88;2.17;;;;;;;0.97;100.00;102086.28;5033161;28;20506;-73
2023/04/26 00:24:39;;;;;;;7.15;2.00;;;;;;;0.89;100.00;102093.50;5033327;28;20464;-74
2023/04/26 00:27:08;;;;;;;5.13;1.80;;;;;;;0.85;100.00;102084.88;5034549;28;20117;-73
2023/04/26 00:29:34;;;;;;;5.63;2.20;;;;;;;0.80;100.00;102089.38;5034785;28;20045;-73
2023/04/26 00:31:59;;;;;;;5.32;1.67;;;;;;;0.76;100.00;102084.28;5034906;28;20355;-74
2023/04/26 00:34:31;;;;;;;7.90;2.90;;;;;;;0.71;100.00;102081.78;5034552;28;20030;-74
2023/04/26 00:36:56;;;;;;;3.92;2.35;;;;;;;0.65;100.00;102087.22;5034641;28;20108;-73
2023/04/26 00:39:21;;;;;;;3.40;2.08;;;;;;;0.57;100.00;102091.81;5033472;28;20148;-73
2023/04/26 00:41:47;;;;;;;6.55;1.80;;;;;;;0.49;100.00;102079.81;5033594;28;20053;-73
2023/04/26 00:44:12;;;;;;;6.00;2.20;;;;;;;0.45;100.00;102080.78;5034683;28;20037;-73
2023/04/26 00:46:38;;;;;;;4.32;2.47;;;;;;;0.43;100.00;102089.59;5034607;28;20037;-73
2023/04/26 00:49:03;;;;;;;3.63;1.83;;;;;;;0.38;100.00;102083.63;5034376;28;20046;-73
2023/04/26 00:51:30;;;;;;;6.03;2.08;;;;;;;0.32;100.00;102084.66;5034149;28;20034;-73
2023/04/26 00:53:56;;;;;;;3.83;2.00;;;;;;;0.29;100.00;102077.72;5032791;28;20533;-72
2023/04/26 00:56:23;;;;;;;6.63;2.30;;;;;;;0.24;100.00;102087.50;5033053;28;20026;-72
2023/04/26 00:58:49;;;;;;;6.10;2.10;;;;;;;0.22;100.00;102084.03;5034054;28;20053;-72
2023/04/26 01:01:14;;;;;;;11.77;2.78;;;;;;;0.19;100.00;102081.50;5033888;28;20051;-72
2023/04/26 01:03:40;;;;;;;3.97;2.10;;;;;;;0.15;100.00;102083.34;5034202;28;20120;-73
2023/04/26 01:06:05;;;;;;;5.88;2.22;;;;;;;0.13;100.00;102084.28;5034103;28;20371;-72
2023/04/26 01:08:31;;;;;;;6.40;2.20;;;;;;;0.09;100.00;102082.66;5033540;28;20136;-72
2023/04/26 01:10:57;;;;;;;3.42;1.80;;;;;;;0.09;100.00;102080.91;5033604;28;20097;-73
2023/04/26 01:13:24;;;;;;;8.38;3.17;;;;;;;0.12;100.00;102077.31;5032126;28;20383;-73
2023/04/26 01:15:50;;;;;;;8.95;2.58;;;;;;;0.10;100.00;102079.97;5033652;28;20025;-73
2023/04/26 01:18:16;;;;;;;7.20;2.50;;;;;;;0.08;100.00;102080.94;5033999;28;20025;-73
2023/04/26 01:20:41;;;;;;;6.95;1.98;;;;;;;0.04;100.00;102079.31;5033286;28;20379;-73
2023/04/26 01:23:08;;;;;;;9.88;2.55;;;;;;;0.02;100.00;102076.72;5033808;28;20049;-73
2023/04/26 01:25:33;;;;;;;7.35;2.05;;;;;;;0.01;100.00;102087.25;5032916;28;20042;-73
2023/04/26 01:27:59;;;;;;;5.38;2.33;;;;;;;-0.03;100.00;102087.31;5033695;28;20029;-73
2023/04/26 01:30:24;;;;;;;6.60;2.78;;;;;;;-0.06;100.00;102083.91;5033680;28;20143;-74
2023/04/26 01:32:50;;;;;;;9.68;2.40;;;;;;;-0.08;100.00;102088.34;5032287;28;20384;-73
2023/04/26 01:35:16;;;;;;;8.00;2.38;;;;;;;-0.12;100.00;102086.69;5034051;28;20368;-73
2023/04/26 01:37:42;;;;;;;4.60;2.08;;;;;;;-0.17;100.00;102084.19;5033465;28;20124;-73
2023/04/26 01:40:08;;;;;;;7.03;2.40;;;;;;;-0.21;100.00;102082.53;5031978;28;20385;-73
2023/04/26 01:42:34;;;;;;;6.00;2.08;;;;;;;-0.23;100.00;102079.13;5033640;28;20034;-73
2023/04/26 01:44:59;;;;;;;7.18;2.08;;;;;;;-0.24;100.00;102080.00;5033431;28;20048;-72
2023/04/26 01:47:25;;;;;;;3.30;2.45;;;;;;;-0.30;100.00;102080.16;5033372;28;20038;-73
2023/04/26 01:49:51;;;;;;;13.15;2.50;;;;;;;-0.32;100.00;102087.22;5033622;28;20447;-74
2023/04/26 01:52:16;;;;;;;5.60;2.30;;;;;;;-0.37;100.00;102079.47;5032509;28;20061;-73
2023/04/26 01:54:42;;;;;;;2.45;1.88;;;;;;;-0.44;100.00;102076.16;5033337;28;20522;-73
2023/04/26 01:57:07;;;;;;;3.40;2.05;;;;;;;-0.48;100.00;102084.09;5033133;28;20041;-73
2023/04/26 01:59:32;;;;;;;3.70;2.25;;;;;;;-0.48;100.00;102084.94;5033994;28;20157;-72
2023/04/26 02:01:58;;;;;;;9.32;2.20;;;;;;;-0.48;100.00;102077.09;5032826;28;20112;-73
2023/04/26 02:04:24;;;;;;;3.03;1.90;;;;;;;-0.46;100.00;102077.06;5032908;28;20053;-72
2023/04/26 02:06:49;;;;;;;3.78;2.05;;;;;;;-0.48;100.00;102071.03;5032820;28;20033;-73
2023/04/26 02:09:15;;;;;;;7.57;2.58;;;;;;;-0.49;100.00;102075.41;5031706;28;20083;-73
2023/04/26 02:11:40;;;;;;;5.28;1.80;;;;;;;-0.49;100.00;102080.63;5031883;28;20120;-73
2023/04/26 02:14:06;;;;;;;4.20;2.05;;;;;;;-0.48;100.00;102084.94;5032825;28;20394;-72
2023/04/26 02:16:31;;;;;;;7.40;2.40;;;;;;;-0.44;100.00;102081.38;5032738;28;20061;-73
2023/04/26 02:18:58;;;;;;;5.20;2.25;;;;;;;-0.34;100.00;102083.75;5032870;28;20025;-73
2023/04/26 02:21:23;;;;;;;4.88;2.08;;;;;;;-0.24;100.00;102077.41;5033172;28;20069;-73
2023/04/26 02:23:49;;;;;;;5.43;2.70;;;;;;;-0.19;100.00;102079.00;5031564;28;20037;-73
2023/04/26 02:26:14;;;;;;;5.13;2.53;;;;;;;-0.13;100.00;102080.59;5032958;28;20025;-73
2023/04/26 02:28:40;;;;;;;14.50;4.05;;;;;;;-0.10;100.00;102072.69;5032775;28;20037;-73
2023/04/26 02:31:06;;;;;;;6.88;2.80;;;;;;;-0.05;100.00;102081.25;5032689;28;20034;-73
2023/04/26 02:33:32;;;;;;;5.30;2.80;;;;;;;-0.04;100.00;102074.28;5032839;28;20172;-73
2023/04/26 02:35:58;;;;;;;4.85;2.72;;;;;;;-0.04;100.00;102079.50;5032892;28;20026;-73
2023/04/26 02:38:25;;;;;;;6.15;2.47;;;;;;;-0.03;100.00;102078.59;5032730;28;20032;-73
2023/04/26 02:40:57;;;;;;;5.47;2.63;;;;;;;-0.06;100.00;102076.94;5032653;28;20033;-73
2023/04/26 02:43:22;;;;;;;4.80;2.30;;;;;;;-0.11;100.00;102070.94;5032730;28;20030;-73
2023/04/26 02:45:48;;;;;;;7.55;2.92;;;;;;;-0.16;100.00;102070.22;5032519;28;20356;-73
2023/04/26 02:48:13;;;;;;;6.93;3.03;;;;;;;-0.21;100.00;102067.72;5032578;28;20439;-73
2023/04/26 02:50:39;;;;;;;5.43;3.05;;;;;;;-0.25;100.00;102071.31;5032591;28;20038;-73
2023/04/26 02:53:04;;;;;;;9.10;2.80;;;;;;;-0.23;100.00;102071.28;5032528;28;20095;-73
2023/04/26 02:55:29;;;;;;;6.22;2.92;;;;;;;-0.22;100.00;102066.00;5032881;28;20120;-73
2023/04/26 02:57:55;;;;;;;7.55;3.20;;;;;;;-0.20;100.00;102060.72;5032472;28;20381;-73
2023/04/26 03:00:21;;;;;;;6.07;2.75;;;;;;;-0.16;100.00;102057.16;5032377;28;20074;-73
2023/04/26 03:02:47;;;;;;;4.38;2.38;;;;;;;-0.14;100.00;102062.34;5032632;28;20034;-73
2023/04/26 03:05:12;;;;;;;5.47;3.13;;;;;;;-0.15;100.00;102058.88;5032657;28;20045;-73
2023/04/26 03:07:38;;;;;;;7.47;3.72;;;;;;;-0.15;100.00;102065.84;5032349;28;20048;-73
2023/04/26 03:10:04;;;;;;;8.23;3.33;;;;;;;-0.16;100.00;102069.34;5031323;28;20075;-73
2023/04/26 03:12:29;;;;;;;6.28;3.17;;;;;;;-0.21;100.00;102072.09;5032413;28;20033;-73
2023/04/26 03:14:55;;;;;;;5.43;2.90;;;;;;;-0.28;100.00;102063.56;5032954;28;20506;-72
2023/04/26 03:17:20;;;;;;;7.40;3.50;;;;;;;-0.37;100.00;102062.03;5032139;28;20033;-72
2023/04/26 03:19:45;;;;;;;8.20;3.30;;;;;;;-0.44;100.00;102052.59;5032086;28;20534;-72
2023/04/26 03:22:14;;;;;;;8.10;3.75;;;;;;;-0.50;100.00;102059.75;5032300;28;20041;-72
2023/04/26 03:24:43;;;;;;;8.23;3.63;;;;;;;-0.55;100.00;102058.09;5032562;28;20464;-73
2023/04/26 03:27:08;;;;;;;5.68;3.20;;;;;;;-0.57;100.00;102059.91;5031460;28;20447;-74
2023/04/26 03:29:34;;;;;;;6.18;2.95;;;;;;;-0.59;100.00;102064.31;5032344;28;20117;-74
2023/04/26 03:32:00;;;;;;;5.53;3.08;;;;;;;-0.60;100.00;102053.88;5032364;28;20032;-74
2023/04/26 03:34:26;;;;;;;6.57;3.15;;;;;;;-0.59;100.00;102059.06;5032001;28;20041;-73
2023/04/26 03:36:51;;;;;;;9.85;3.08;;;;;;;-0.62;100.00;102051.31;5031919;28;20490;-74
2023/04/26 03:39:17;;;;;;;4.88;2.85;;;;;;;-0.61;100.00;102054.78;5031419;28;20057;-74
2023/04/26 03:41:42;;;;;;;8.05;3.22;;;;;;;-0.57;100.00;102048.56;5032167;28;20112;-74
2023/04/26 03:44:07;;;;;;;6.35;3.50;;;;;;;-0.52;100.00;102053.69;5031612;28;20416;-74
2023/04/26 03:46:33;;;;;;;5.82;3.17;;;;;;;-0.44;100.00;102050.00;5032097;28;20048;-74
2023/04/26 03:48:58;;;;;;;7.07;3.03;;;;;;;-0.32;100.00;102045.34;5033756;28;20467;-74
2023/04/26 03:51:23;;;;;;;8.65;3.20;;;;;;;-0.18;100.00;102045.84;5035562;28;20364;-73
2023/04/26 03:53:49;;;;;;;6.82;3.42;;;;;;;-0.05;100.00;102044.63;5035439;28;20108;-74
2023/04/26 03:56:15;;;;;;;6.70;3.58;;;;;;;0.12;100.00;102041.56;5035925;28;20439;-74
2023/04/26 03:58:42;;;;;;;13.50;4.53;;;;;;;0.26;100.00;102033.31;5035494;28;20046;-74
2023/04/26 04:01:07;;;;;;;6.13;3.50;;;;;;;0.34;100.00;102038.31;5034134;28;20041;-72
2023/04/26 04:03:32;;;;;;;8.43;3.85;;;;;;;0.31;100.00;102031.44;5035682;28;20029;-73
2023/04/26 04:05:58;;;;;;;6.65;3.47;;;;;;;0.25;100.00;102044.69;5035423;28;20037;-72
2023/04/26 04:08:23;;;;;;;7.88;3.42;;;;;;;0.15;100.00;102037.97;5017232;28;20037;-73
2023/04/26 04:10:49;;;;;;;4.20;3.17;;;;;;;0.05;100.00;102042.63;5034142;28;20168;-73
2023/04/26 04:13:14;;;;;;;5.25;2.90;;;;;;;-0.07;100.00;102049.03;5035180;28;20036;-73
2023/04/26 04:15:40;;;;;;;6.20;3.20;;;;;;;-0.14;100.00;102052.72;5034486;28;20043;-73
2023/04/26 04:18:05;;;;;;;8.63;3.60;;;;;;;-0.22;100.00;102046.84;5035131;28;20116;-73
2023/04/26 04:20:30;;;;;;;14.30;4.53;;;;;;;-0.24;100.00;102051.25;5035027;28;20384;-73
2023/04/26 04:22:57;;;;;;;6.10;3.70;;;;;;;-0.29;100.00;102050.50;5033700;28;20037;-72
2023/04/26 04:25:23;;;;;;;5.85;3.65;;;;;;;-0.33;100.00;102047.09;5035200;28;20087;-73
2023/04/26 04:27:49;;;;;;;8.85;4.00;;;;;;;-0.38;100.00;102052.44;5034779;28;20522;-73
2023/04/26 04:30:15;;;;;;;6.72;3.83;;;;;;;-0.39;100.00;102053.38;5033754;28;20041;-73
2023/04/26 04:32:43;;;;;;;7.75;4.25;;;;;;;-0.38;100.00;102059.44;5033521;28;20542;-72
2023/04/26 04:35:09;;;;;;;7.75;3.67;;;;;;;-0.40;100.00;102056.03;5034421;28;20487;-74
2023/04/26 04:37:35;;;;;;;8.27;4.00;;;;;;;-0.43;100.00;102054.34;5034754;28;20033;-73
2023/04/26 04:40:00;;;;;;;9.27;3.60;;;;;;;-0.44;100.00;102057.84;5034848;28;20376;-73
2023/04/26 04:42:27;;;;;;;6.97;3.50;;;;;;;-0.45;100.00;102055.25;5034885;28;20049;-73
2023/04/26 04:44:53;;;;;;;7.18;3.88;;;;;;;-0.44;100.00;102055.22;5034286;28;20391;-73
2023/04/26 04:47:18;;;;;;;7.75;3.58;;;;;;;-0.42;100.00;102053.44;5034553;28;20038;-73
2023/04/26 04:49:44;;;;;;;9.02;4.20;;;;;;;-0.42;100.00;102056.06;5034597;28;20403;-73
2023/04/26 04:52:09;;;;;;;7.13;4.10;;;;;;;-0.39;100.00;102060.34;5034769;28;20168;-73
2023/04/26 04:54:35;;;;;;;6.30;3.40;;;;;;;-0.35;100.00;102061.97;5034348;28;20068;-72
2023/04/26 04:57:00;;;;;;;7.35;3.78;;;;;;;-0.28;100.00;102065.31;5034056;28;20030;-72
2023/04/26 04:59:26;;;;;;;10.05;3.85;;;;;;;-0.24;100.00;102059.09;5034788;28;20056;-73
2023/04/26 05:01:51;;;;;;;6.88;3.80;;;;;;;-0.15;100.00;102060.59;5034715;28;20381;-73
2023/04/26 05:04:17;;;;;;;6.22;3.38;;;;;;;-0.09;100.00;102065.69;5034338;28;20037;-74
2023/04/26 05:06:42;;;;;;;7.25;3.90;;;;;;;0.03;100.00;102061.88;5034388;28;20110;-74
2023/04/26 05:09:08;;;;;;;11.23;3.67;;;;;;;0.15;100.00;102059.81;5034086;28;20446;-73
2023/04/26 05:11:34;;;;;;;6.70;3.60;;;;;;;0.26;100.00;102056.88;5034330;28;20083;-74
2023/04/26 05:13:59;;;;;;;9.68;4.00;;;;;;;0.40;100.00;102053.00;5035013;28;20152;-73
2023/04/26 05:16:25;;;;;;;9.93;3.83;;;;;;;0.50;100.00;102047.47;5034578;28;20041;-73
2023/04/26 05:18:50;;;;;;;7.65;3.80;;;;;;;0.64;100.00;102046.19;5034118;28;20120;-74
2023/04/26 05:21:15;;;;;;;6.47;3.80;;;;;;;0.78;100.00;102051.03;5033988;28;20105;-74
2023/04/26 05:23:41;;;;;;;15.75;4.68;;;;;;;0.92;100.00;102048.84;5034595;28;20122;-74
2023/04/26 05:26:07;;;;;;;11.57;4.25;;;;;;;1.10;100.00;102059.66;5034234;28;20116;-73
2023/04/26 05:28:35;;;;;;;10.52;4.65;;;;;;;1.29;100.00;102066.03;5034572;28;20044;-73
2023/04/26 05:31:01;;;;;;;8.10;4.10;;;;;;;1.48;100.00;102068.94;5033999;28;20065;-73
2023/04/26 05:33:27;;;;;;;7.68;3.97;;;;;;;1.71;100.00;102064.69;5033899;28;20117;-74
2023/04/26 05:35:53;;;;;;;6.68;3.70;;;;;;;1.94;100.00;102071.75;5034362;28;20120;-73
2023/04/26 05:38:19;;;;;;;7.43;4.28;;;;;;;2.17;100.00;102072.75;5032369;28;20124;-74
2023/04/26 05:40:44;;;;;;;11.30;3.80;;;;;;;2.37;100.00;102079.91;5034276;28;20033;-73
2023/04/26 05:43:10;;;;;;;9.43;4.00;;;;;;;2.54;100.00;102080.16;5033446;28;20513;-73
2023/04/26 05:45:36;;;;;;;9.40;3.88;;;;;;;2.70;100.00;102080.41;5033604;28;20025;-74
2023/04/26 05:48:01;;;;;;;11.15;3.92;;;;;;;2.86;100.00;102079.84;5032414;28;20037;-74
2023/04/26 05:50:26;;;;;;;6.13;3.60;;;;;;;3.01;100.00;102079.25;5033553;28;20471;-74
2023/04/26 05:52:52;;;;;;;17.50;4.85;;;;;;;3.14;100.00;102083.09;5033296;28;20033;-73
2023/04/26 05:55:19;;;;;;;9.68;4.80;;;;;;;3.31;100.00;102082.47;5033638;28;20033;-73
2023/04/26 05:57:44;;;;;;;7.28;3.80;;;;;;;3.47;100.00;102080.03;5033387;28;20038;-75
2023/04/26 06:00:11;;;;;;;4.97;2.75;;;;;;;3.66;100.00;102081.94;5031750;28;20476;-73
2023/04/26 06:02:36;;;;;;;10.77;2.85;;;;;;;3.84;100.00;102080.31;5031849;28;20087;-73
2023/04/26 06:05:02;;;;;;;7.57;2.33;;;;;;;4.04;100.00;102085.53;5015501;28;20029;-73
2023/04/26 06:07:27;;;;;;;7.97;2.22;;;;;;;4.14;100.00;102087.81;5033220;28;20086;-72
2023/04/26 06:09:52;;;;;;;3.15;1.80;;;;;;;4.29;100.00;102095.03;5033276;28;20151;-73
2023/04/26 06:12:18;;;;;;;6.25;2.00;;;;;;;4.39;100.00;102093.69;5031185;28;20033;-73
2023/04/26 06:14:43;;;;;;;11.57;2.58;;;;;;;4.52;100.00;102093.16;5015697;28;20044;-72
2023/04/26 06:17:08;;;;;;;5.18;1.70;;;;;;;4.61;100.00;102095.34;5033703;28;20379;-73
2023/04/26 06:19:34;;;;;;;2.20;1.65;;;;;;;4.76;100.00;102099.94;5033029;28;20463;-74
2023/04/26 06:21:59;;;;;;;2.60;1.80;;;;;;;4.85;100.00;102101.31;5033098;28;20029;-72
2023/04/26 06:24:25;;;;;;;8.15;1.92;;;;;;;5.04;100.00;102100.44;5031865;28;20574;-73
2023/04/26 06:26:50;;;;;;;3.63;1.55;;;;;;;5.13;100.00;102102.63;5033369;28;20042;-73
2023/04/26 06:29:16;;;;;;;5.45;1.67;;;;;;;5.21;100.00;102105.78;5032688;28;20033;-73
2023/04/26 06:31:41;;;;;;;5.65;1.60;;;;;;;5.33;100.00;102106.09;5032689;28;20079;-74
2023/04/26 06:34:07;;;;;;;5.47;1.88;;;;;;;5.47;100.00;102103.66;5031856;28;20087;-75
2023/04/26 06:36:32;;;;;;;5.07;1.48;;;;;;;5.63;100.00;102109.91;5032540;28;20025;-72
2023/04/26 06:38:58;;;;;;;4.78;1.60;;;;;;;5.78;100.00;102104.78;5032758;28;20092;-73
2023/04/26 06:41:23;;;;;;;6.43;1.50;;;;;;;5.87;100.00;102104.31;5032607;28;20040;-77
2023/04/26 06:43:48;;;;;;;7.03;1.60;;;;;;;5.87;100.00;102098.16;5031394;28;20454;-72
2023/04/26 06:46:14;;;;;;;4.70;1.20;;;;;;;5.73;100.00;102115.59;5032617;28;20542;-74
2023/04/26 06:48:39;;;;;;;2.13;1.20;;;;;;;5.55;100.00;102119.97;5031466;28;20049;-73
2023/04/26 06:51:08;;;;;;;2.53;1.27;;;;;;;5.32;100.00;102115.81;5032637;28;20080;-72
2023/04/26 06:53:34;;;;;;;2.33;1.25;;;;;;;5.10;100.00;102124.72;5032814;28;20029;-72
2023/04/26 06:56:00;;;;;;;5.00;1.50;;;;;;;4.86;100.00;102118.81;5032665;28;20033;-73
2023/04/26 06:58:25;;;;;;;6.97;2.22;;;;;;;4.63;100.00;102122.53;5032306;28;20056;-75
2023/04/26 07:00:50;;;;;;;6.65;3.35;;;;;;;4.44;100.00;102129.53;5031535;28;20099;-72
2023/04/26 07:03:16;;;;;;;1.65;1.50;;;;;;;4.24;100.00;102121.59;5032659;28;20034;-74
2023/04/26 07:05:41;;;;;;;7.80;2.40;;;;;;;4.17;100.00;102117.50;5033305;28;20037;-74
2023/04/26 07:08:07;;;;;;;2.70;1.90;;;;;;;4.18;100.00;102115.69;5033167;28;20475;-72
2023/04/26 07:10:32;;;;;;;7.03;1.75;;;;;;;4.20;100.00;102117.38;5031370;28;20094;-72
2023/04/26 07:12:57;;;;;;;8.48;2.33;;;;;;;4.28;100.00;102113.53;5031644;28;20116;-74
2023/04/26 07:15:23;;;;;;;5.60;1.95;;;;;;;4.32;100.00;102113.34;5032690;28;20038;-74
2023/04/26 07:17:48;;;;;;;3.53;1.70;;;;;;;4.43;100.00;102115.50;5033028;28;20041;-74
2023/04/26 07:20:18;;;;;;;3.92;1.75;;;;;;;4.55;100.00;102109.69;5032443;28;20041;-73
2023/04/26 07:22:44;;;;;;;6.63;1.70;;;;;;;4.73;100.00;102109.75;5032559;28;20115;-74
2023/04/26 07:25:09;;;;;;;5.45;1.70;;;;;;;4.94;100.00;102114.06;5036366;28;20427;-72
2023/04/26 07:27:34;;;;;;;3.70;1.60;;;;;;;5.20;100.00;102108.50;5034951;28;20129;-72
2023/04/26 07:30:00;;;;;;;6.38;1.95;;;;;;;5.41;100.00;102117.16;5035869;28;20329;-72
2023/04/26 07:32:25;;;;;;;2.45;1.52;;;;;;;5.56;100.00;102116.41;5036307;28;20079;-72
2023/04/26 07:34:51;;;;;;;3.15;1.67;;;;;;;5.65;100.00;102115.09;5034795;28;20068;-71
2023/04/26 07:37:16;;;;;;;5.10;1.98;;;;;;;5.73;100.00;102114.72;5035116;28;20076;-72
2023/04/26 07:39:41;;;;;;;4.93;1.67;;;;;;;5.86;100.00;102115.81;5036275;28;20037;-72
2023/04/26 07:42:07;;;;;;;4.90;1.80;;;;;;;6.00;100.00;102121.28;5035371;28;20026;-72
2023/04/26 07:44:32;;;;;;;6.63;1.90;;;;;;;6.07;100.00;102119.19;5035661;28;20057;-72
2023/04/26 07:46:57;;;;;;;7.43;1.77;;;;;;;6.08;100.00;102125.34;5034644;28;20395;-72
2023/04/26 07:49:23;;;;;;;8.32;2.13;;;;;;;6.20;100.00;102129.16;5035816;28;20069;-72
2023/04/26 07:51:50;;;;;;;6.10;1.70;;;;;;;6.38;100.00;102125.53;5036099;28;20116;-72
2023/04/26 07:54:16;;;;;;;5.15;1.63;;;;;;;6.47;100.00;102129.50;5035785;28;20056;-72
2023/04/26 07:56:41;;;;;;;1.65;1.52;;;;;;;6.48;100.00;102125.91;5035732;28;20034;-72
2023/04/26 07:59:07;;;;;;;2.92;1.15;;;;;;;6.52;100.00;102127.44;5035244;28;20050;-72
2023/04/26 08:01:32;;;;;;;5.28;1.40;;;;;;;6.56;100.00;102130.78;5035312;28;20202;-71
2023/04/26 08:03:58;;;;;;;3.63;1.30;;;;;;;6.61;100.00;102121.66;5034350;28;20045;-72
2023/04/26 08:06:23;;;;;;;7.43;1.80;;;;;;;6.71;100.00;102130.81;5035701;28;20044;-72
2023/04/26 08:08:49;;;;;;;4.63;1.75;;;;;;;6.90;100.00;102132.47;5034386;28;20438;-72
2023/04/26 08:11:15;;;;;;;4.97;1.42;;;;;;;7.03;100.00;102127.34;5035911;28;20128;-72
2023/04/26 08:13:42;;;;;;;3.35;1.63;;;;;;;7.14;100.00;102132.91;5035722;28;20036;-72
2023/04/26 08:16:08;;;;;;;8.82;1.58;;;;;;;7.33;100.00;102118.63;5035000;28;20044;-72
2023/04/26 08:18:34;;;;;;;3.40;1.70;;;;;;;7.48;100.00;102130.16;5034034;28;20029;-76
2023/04/26 08:20:59;;;;;;;5.72;1.67;;;;;;;7.62;100.00;102119.63;5035338;28;20064;-71
2023/04/26 08:23:24;;;;;;;3.97;1.70;;;;;;;7.72;100.00;102120.81;5035343;28;20033;-72
2023/04/26 08:25:50;;;;;;;4.05;1.50;;;;;;;7.81;100.00;102119.44;5035433;28;20040;-71
2023/04/26 08:28:15;;;;;;;3.95;2.28;;;;;;;7.81;100.00;102124.72;5035142;28;20055;-72
2023/04/26 08:30:41;;;;;;;4.95;1.50;;;;;;;7.77;100.00;102131.97;5033825;28;20029;-72
2023/04/26 08:33:08;;;;;;;4.93;1.50;;;;;;;7.46;100.00;102135.53;5034780;28;20068;-72
2023/04/26 08:35:33;;;;;;;3.67;1.55;;;;;;;7.17;100.00;102140.69;5035157;28;20037;-72
2023/04/26 08:37:59;;;;;;;9.30;1.83;;;;;;;6.88;100.00;102132.56;5034906;28;20083;-72
2023/04/26 08:40:25;;;;;;;3.00;1.55;;;;;;;6.53;100.00;102139.72;5034585;28;20116;-73
2023/04/26 08:42:52;;;;;;;5.28;1.40;;;;;;;6.26;100.00;102127.03;5034912;28;20034;-73
2023/04/26 08:45:21;;;;;;;6.63;1.67;;;;;;;5.99;100.00;102129.31;5035032;28;20120;-72
2023/04/26 08:47:52;;;;;;;3.53;1.30;;;;;;;5.83;100.00;102143.22;5034585;28;20034;-73
2023/04/26 08:50:20;;;;;;;5.55;2.13;;;;;;;5.72;100.00;102147.31;5034501;28;20021;-73
2023/04/26 08:52:50;;;;;;;10.07;1.73;;;;;;;5.63;100.00;102146.88;5033452;28;20033;-73
2023/04/26 08:55:16;;;;;;;5.20;1.95;;;;;;;5.60;100.00;102147.00;5034940;28;20091;-72
2023/04/26 08:57:45;;;;;;;11.32;1.70;;;;;;;5.60;100.00;102147.00;5034317;28;20032;-72
2023/04/26 09:00:12;;;;;;;2.80;1.60;;;;;;;5.73;100.00;102144.63;5034339;28;20026;-73
2023/04/26 09:02:40;;;;;;;5.25;1.80;;;;;;;6.00;100.00;102136.28;5017571;28;20426;-74
2023/04/26 09:05:06;;;;;;;4.55;1.70;;;;;;;6.29;100.00;102140.06;5034350;28;20468;-73
2023/04/26 09:07:40;;;;;;;5.95;1.85;;;;;;;6.67;100.00;102146.94;5033615;28;20041;-74
2023/04/26 09:10:06;;;;;;;5.20;1.60;;;;;;;7.14;100.00;102148.81;5034322;28;20033;-72
2023/04/26 09:12:32;;;;;;;5.05;1.45;;;;;;;7.54;100.00;102137.78;5034356;28;20068;-72
2023/04/26 09:14:57;;;;;;;6.20;2.40;;;;;;;7.89;100.00;102142.81;5032703;28;20053;-72
2023/04/26 09:17:27;;;;;;;4.93;2.10;;;;;;;8.18;100.00;102143.75;5033523;28;20033;-72
2023/04/26 09:19:54;;;;;;;6.95;2.50;;;;;;;8.44;100.00;102131.59;5033956;28;20505;-72
2023/04/26 09:22:36;;;;;;;5.55;1.40;;;;;;;8.77;100.00;102130.47;5034127;28;20029;-73
2023/04/26 09:25:06;;;;;;;3.30;1.40;;;;;;;9.06;100.00;102130.44;5034906;28;20040;-73
2023/04/26 09:27:37;;;;;;;6.70;1.10;;;;;;;9.19;97.41;102138.47;5032939;28;20030;-73
2023/04/26 09:30:09;;;;;;;3.00;1.23;;;;;;;9.23;100.00;102139.97;5032487;28;20029;-73
2023/04/26 09:32:57;;;;;;;2.85;1.25;;;;;;;9.48;94.37;102120.66;5034127;28;20040;-72
2023/04/26 09:35:33;;;;;;;5.22;1.23;;;;;;;9.71;91.36;102120.94;5033694;28;20063;-73
2023/04/26 09:38:20;;;;;;;4.30;1.23;;;;;;;10.06;82.90;102120.34;5034093;28;20060;-73
2023/04/26 09:40:48;;;;;;;3.33;1.10;;;;;;;11.29;72.42;102114.38;5032907;28;20041;-71
2023/04/26 09:43:18;;;;;;;2.80;1.25;;;;;;;12.60;62.06;102121.44;5034008;28;20025;-72
2023/04/26 09:45:55;;;;;;;5.45;1.20;;;;;;;13.38;58.85;102111.66;5033377;28;20041;-73
2023/04/26 09:48:27;;;;;;;6.43;1.25;;;;;;;14.29;62.04;102114.72;5033601;28;20021;-72
2023/04/26 09:50:57;;;;;;;3.92;1.20;;;;;;;15.03;51.30;102118.97;5033471;28;20035;-73
2023/04/26 09:53:33;;;;;;;4.28;1.05;;;;;;;15.43;49.38;102114.56;5034262;28;20114;-73
2023/04/26 09:56:19;;;;;;;2.08;0.95;;;;;;;14.87;46.87;102113.31;5033909;28;20033;-72
2023/04/26 09:58:58;;;;;;;5.45;1.17;;;;;;;14.26;46.12;102113.16;5032341;28;20056;-77
2023/04/26 10:01:25;;;;;;;3.53;1.13;;;;;;;12.88;47.38;102115.63;5033575;28;20054;-72
2023/04/26 10:03:51;;;;;;;2.88;1.17;;;;;;;12.33;51.81;102112.81;5032407;28;20152;-73
2023/04/26 10:06:17;;;;;;;2.60;1.15;;;;;;;11.51;56.35;102122.59;5033100;28;20033;-72
2023/04/26 10:08:43;;;;;;;2.40;1.23;;;;;;;11.32;56.25;102115.97;5033175;28;20033;-73
2023/04/26 10:11:10;;;;;;;3.88;1.17;;;;;;;11.16;59.46;102121.56;5033268;28;20033;-72
2023/04/26 10:13:36;;;;;;;4.85;1.27;;;;;;;11.47;60.28;102116.66;5033188;28;20033;-72
2023/04/26 10:16:03;;;;;;;3.47;1.20;;;;;;;12.98;52.41;102115.72;5031917;28;20592;-72
2023/04/26 10:18:30;;;;;;;5.47;1.15;;;;;;;13.39;49.52;102108.88;5033250;28;20037;-72
2023/04/26 10:20:59;;;;;;;6.35;1.45;;;;;;;13.64;51.51;102117.50;5033337;28;20060;-73
2023/04/26 10:23:24;;;;;;;4.32;1.15;;;;;;;13.07;49.94;102116.81;5033180;28;20068;-72
2023/04/26 10:25:50;;;;;;;6.78;1.27;;;;;;;12.33;52.25;102123.50;5033050;28;20553;-73
2023/04/26 10:28:17;;;;;;;2.55;1.20;;;;;;;11.60;55.14;102122.78;5032943;28;20537;-72
2023/04/26 10:30:55;;;;;;;2.58;1.13;;;;;;;12.90;55.86;102115.50;5033454;28;20428;-72
2023/04/26 10:33:22;;;;;;;4.88;1.38;;;;;;;15.08;47.00;102114.06;5032703;28;20029;-72
2023/04/26 10:36:03;;;;;;;3.83;1.20;;;;;;;16.52;39.92;102112.44;5031835;28;20073;-71
2023/04/26 10:38:30;;;;;;;4.75;1.23;;;;;;;17.15;38.23;102107.34;5033591;28;20025;-71
2023/04/26 10:41:31;;;;;;;3.65;1.20;;;;;;;18.08;37.72;102098.94;5032984;28;20044;-72
2023/04/26 10:43:59;;;;;;;3.28;1.08;;;;;;;16.67;40.76;102104.72;5033022;28;20025;-72
2023/04/26 10:46:38;;;;;;;3.95;1.30;;;;;;;15.15;44.37;102115.22;5032617;28;20521;-72
2023/04/26 10:49:15;;;;;;;2.13;1.10;;;;;;;13.86;45.73;102105.84;5032922;28;20037;-72
2023/04/26 10:51:40;;;;;;;1.95;0.90;;;;;;;14.64;44.72;102108.16;5033809;28;20112;-72
2023/04/26 10:54:06;;;;;;;5.13;1.23;;;;;;;15.23;41.80;102105.66;5033150;28;20119;-71
2023/04/26 10:56:32;;;;;;;3.10;1.02;;;;;;;16.30;44.01;102102.91;5032868;28;20147;-72
2023/04/26 10:59:18;;;;;;;4.45;1.40;;;;;;;16.98;41.38;102096.41;5036821;28;20034;-74
2023/04/26 11:01:45;;;;;;;4.07;1.10;;;;;;;16.12;42.34;102091.22;5037194;28;20472;-71
2023/04/26 11:04:11;;;;;;;5.32;1.45;;;;;;;15.66;43.11;102091.00;5036613;28;20187;-72
2023/04/26 11:06:58;;;;;;;4.10;1.10;;;;;;;14.32;44.36;102094.88;5036662;28;20351;-71
2023/04/26 11:09:38;;;;;;;4.63;1.05;;;;;;;12.86;47.59;102095.34;5037255;28;20144;-71
2023/04/26 11:12:11;;;;;;;10.02;1.33;;;;;;;12.62;47.54;102088.31;5036803;28;20540;-74
2023/04/26 11:14:37;;;;;;;4.28;1.40;;;;;;;13.16;48.30;102093.81;5036851;28;20039;-71
2023/04/26 11:17:07;;;;;;;10.73;1.25;;;;;;;13.96;47.08;102086.34;5035693;28;20055;-71
2023/04/26 11:19:33;;;;;;;2.42;1.17;;;;;;;14.75;45.00;102086.63;5036423;28;20029;-73